Koyo Maru — JD3232 — position and weather

sailwx.info

Track history (hours):
 
Tides and Currents Weather Stations Pressure Air Temp Water Temp Dewpoint Dewpoint Depression Visibility Wind Speed Wind Dir Waves Ship Positions

Koyo Maru

Last reported at 2018-May-18 06:04 UTC. Time now 2018-May-22 21:19 UTC.
Position N 35°32' E 139°54'.

Length 61 m; draft 3.5 m.

Type: Tanker. MMSI: 431002923.

Date/timePositionNaut miles runAvg speedWind from/ knotsBaromVisibWave heightAir tempDewpointWater temp
2018-May-18 06:04N 35°32' E 139°54'112.3
2018-May-18 05:57N 35°31' E 139°52'510.8
2018-May-18 05:30N 35°30' E 139°46'1 0.2
2018-May-17 23:27N 35°32' E 139°45'2 4.4
2018-May-17 22:59N 35°30' E 139°47'2 4.0
2018-May-17 22:30N 35°30' E 139°49'0 0.0
2018-May-17 22:00N 35°30' E 139°49'0 0.0
2018-May-17 21:30N 35°30' E 139°49'0 0.0
2018-May-17 20:57N 35°30' E 139°49'0 0.0
2018-May-17 20:30N 35°30' E 139°49'0 0.0
2018-May-17 20:00N 35°30' E 139°49'0 0.0
2018-May-17 19:30N 35°30' E 139°49'0 0.0
2018-May-17 19:00N 35°30' E 139°49'0 0.0
2018-May-17 18:30N 35°30' E 139°49'0 0.0
2018-May-17 18:01N 35°30' E 139°49'0 0.0
2018-May-17 17:27N 35°30' E 139°49'0 0.0
2018-May-17 17:00N 35°30' E 139°49'0 0.0
2018-May-17 16:30N 35°30' E 139°49'0 0.0
2018-May-17 16:00N 35°30' E 139°49'0 0.0
2018-May-17 15:29N 35°30' E 139°49'0 0.0
2018-May-17 14:59N 35°30' E 139°49'0 0.0
2018-May-17 14:06N 35°30' E 139°49'0 0.0
2018-May-17 14:00N 35°30' E 139°49'0 0.0
2018-May-17 13:27N 35°30' E 139°49'2 5.0
2018-May-17 13:00N 35°28' E 139°48'510.7
2018-May-17 12:30N 35°23' E 139°46'5 9.8
2018-May-17 12:00N 35°18' E 139°45'510.4
2018-May-17 11:30N 35°13' E 139°47'611.3
2018-May-17 11:00N 35°08' E 139°45'611.2
2018-May-17 10:30N 35°03' E 139°42'612.3
2018-May-17 10:00N 34°59' E 139°36'232 9.6
2018-May-16 09:46N 34°04' E 135°03'310.0
2018-May-16 09:30N 34°07' E 135°03'510.1
2018-May-16 09:00N 34°12' E 135°03'5 9.7
2018-May-16 08:30N 34°17' E 135°03'5 9.5
2018-May-16 08:00N 34°21' E 135°05'510.8
2018-May-16 07:30N 34°25' E 135°09'611.4
2018-May-16 07:00N 34°29' E 135°15'510.7
2018-May-16 06:30N 34°32' E 135°20'4 9.0
2018-May-16 06:00N 34°33' E 135°25'1 0.9
2018-May-16 05:26N 34°33' E 135°26'0 0.0
2018-May-16 04:39N 34°33' E 135°26'0 0.0
2018-May-16 04:21N 34°33' E 135°26'0 0.1
2018-May-16 03:54N 34°33' E 135°26'0 0.0
2018-May-16 02:21N 34°33' E 135°26'0 0.0
2018-May-16 01:59N 34°33' E 135°26'0 0.0
2018-May-16 00:08N 34°33' E 135°26'0 0.5
2018-May-16 00:00N 34°33' E 135°26'5 9.6
2018-May-15 23:30N 34°33' E 135°20'611.3
2018-May-15 23:00N 34°35' E 135°13'5 9.2
2018-May-15 22:30N 34°39' E 135°11'2 4.1
2018-May-15 22:00N 34°41' E 135°12'0 0.0
2018-May-15 21:30N 34°41' E 135°12'0 0.0
2018-May-15 21:00N 34°41' E 135°12'0 0.0
2018-May-15 20:30N 34°41' E 135°12'0 0.0
2018-May-15 20:00N 34°41' E 135°12'0 0.0
2018-May-15 19:30N 34°41' E 135°12'0 0.0
2018-May-15 19:00N 34°41' E 135°12'0 0.0
2018-May-15 18:30N 34°41' E 135°12'0 0.0
2018-May-15 18:00N 34°41' E 135°12'0 0.0
2018-May-15 17:28N 34°41' E 135°12'0 0.0
2018-May-15 17:00N 34°41' E 135°12'0 0.0
2018-May-15 16:30N 34°41' E 135°12'0 0.0
2018-May-15 16:00N 34°41' E 135°12'0 0.0
2018-May-15 15:30N 34°41' E 135°12'0 0.0
2018-May-15 15:00N 34°41' E 135°12'0 0.0
2018-May-15 14:30N 34°41' E 135°12'0 0.0
2018-May-15 14:01N 34°41' E 135°12'0 0.0
2018-May-15 13:30N 34°41' E 135°12'0 0.0
2018-May-15 13:01N 34°41' E 135°12'0 0.0
2018-May-15 12:31N 34°41' E 135°12'0 0.0
2018-May-15 12:00N 34°41' E 135°12'0 0.0
2018-May-15 11:31N 34°41' E 135°12'0 0.0
2018-May-15 11:00N 34°41' E 135°12'0 0.0
2018-May-15 10:30N 34°41' E 135°12'0 0.0
2018-May-15 10:00N 34°41' E 135°12'0 0.0
2018-May-15 09:30N 34°41' E 135°12'0 0.0
2018-May-15 09:01N 34°41' E 135°12'0 0.0
2018-May-15 08:30N 34°41' E 135°12'0 0.0
2018-May-15 08:01N 34°41' E 135°12'0 0.0
2018-May-15 07:30N 34°41' E 135°12'0 0.0
2018-May-15 07:01N 34°41' E 135°12'0 0.0
2018-May-15 06:30N 34°41' E 135°12'0 0.0
2018-May-15 06:01N 34°41' E 135°12'0 0.0
2018-May-15 05:30N 34°41' E 135°12'0 0.0
2018-May-15 05:01N 34°41' E 135°12'0 0.0
2018-May-15 04:31N 34°41' E 135°12'0 0.0
2018-May-15 04:00N 34°41' E 135°12'0 0.0
2018-May-15 03:30N 34°41' E 135°12'0 0.0
2018-May-15 03:00N 34°41' E 135°12'0 0.0
2018-May-15 02:30N 34°41' E 135°12'0 0.0
2018-May-15 02:01N 34°41' E 135°12'0 0.0
2018-May-15 01:31N 34°41' E 135°12'0 0.0
2018-May-15 01:00N 34°41' E 135°12'0 0.0
2018-May-15 00:30N 34°41' E 135°12'0 0.2
2018-May-15 00:01N 34°41' E 135°12'4 7.1
2018-May-14 23:30N 34°38' E 135°10'1 1.9
2018-May-14 23:01N 34°37' E 135°10'0 0.0
2018-May-14 22:30N 34°37' E 135°10'0 0.0
2018-May-14 22:00N 34°37' E 135°10'0 0.0
2018-May-14 21:30N 34°37' E 135°10'0 0.1
2018-May-14 21:00N 34°37' E 135°10'0 0.0
2018-May-14 20:31N 34°37' E 135°10'0 0.0
2018-May-14 20:00N 34°37' E 135°10'0 0.0
2018-May-14 19:30N 34°37' E 135°10'0 0.0
2018-May-14 19:00N 34°37' E 135°10'0 0.0
2018-May-14 18:30N 34°37' E 135°10'0 0.0
2018-May-14 18:01N 34°37' E 135°10'0 0.0
2018-May-14 17:30N 34°37' E 135°10'0 0.0
2018-May-14 17:01N 34°37' E 135°10'0 0.0
2018-May-14 16:30N 34°37' E 135°10'0 0.0
2018-May-14 16:00N 34°37' E 135°10'0 0.0
2018-May-14 15:31N 34°37' E 135°10'0 0.0
2018-May-14 15:00N 34°37' E 135°10'1 1.6
2018-May-14 14:30N 34°36' E 135°11'5 9.2
2018-May-14 14:00N 34°38' E 135°17'2 3.1
2018-May-14 13:30N 34°39' E 135°18'0 0.0
2018-May-14 13:01N 34°39' E 135°18'0 0.0
2018-May-14 12:30N 34°39' E 135°18'0 0.1
2018-May-14 12:00N 34°39' E 135°18'1 2.7
2018-May-14 11:30N 34°38' E 135°18'0 0.9
2018-May-14 11:00N 34°37' E 135°18'0 0.0
2018-May-14 10:30N 34°37' E 135°18'0 0.0
2018-May-14 10:00N 34°37' E 135°18'0 0.1
2018-May-14 09:31N 34°37' E 135°18'0 0.1
2018-May-14 09:00N 34°37' E 135°18'2 4.0
2018-May-14 08:31N 34°39' E 135°18'0 0.9
2018-May-14 08:00N 34°40' E 135°18'0 0.0
2018-May-14 07:30N 34°40' E 135°18'0 0.0
2018-May-14 07:01N 34°40' E 135°18'0 0.0
2018-May-14 06:31N 34°40' E 135°18'0 0.5
2018-May-14 06:00N 34°40' E 135°18'2 4.5
2018-May-14 05:30N 34°38' E 135°18'1 1.6
2018-May-14 05:00N 34°37' E 135°18'0 0.0
2018-May-14 04:31N 34°37' E 135°18'0 0.0
2018-May-14 04:00N 34°37' E 135°18'0 0.0
2018-May-14 03:30N 34°37' E 135°18'0 0.0
2018-May-14 03:00N 34°37' E 135°18'0 0.0
2018-May-14 02:30N 34°37' E 135°18'0 0.0
2018-May-14 02:00N 34°37' E 135°18'0 0.0
2018-May-14 01:31N 34°37' E 135°18'0 0.0
2018-May-14 01:01N 34°37' E 135°18'2 4.6
2018-May-14 00:31N 34°35' E 135°16'611.3
2018-May-14 00:00N 34°31' E 135°12'611.0
2018-May-13 23:30N 34°26' E 135°08'611.4
2018-May-13 23:00N 34°22' E 135°04'611.8
2018-May-13 22:31N 34°17' E 134°59'612.1
2018-May-13 22:00N 34°11' E 135°00'611.8
2018-May-13 21:30N 34°05' E 135°01'611.8
2018-May-13 21:00N 33°59' E 135°01'611.5
2018-May-13 20:30N 33°54' E 135°02'102 6.5
2018-May-13 04:54N 34°39' E 136°52'4 9.9
2018-May-13 04:30N 34°42' E 136°49'510.4
2018-May-13 04:00N 34°47' E 136°46'510.3
2018-May-13 03:30N 34°52' E 136°45'510.7
2018-May-13 03:01N 34°57' E 136°44'1 1.1
2018-May-13 02:31N 34°57' E 136°44'2 4.4
2018-May-13 02:00N 34°58' E 136°41'2 3.9
2018-May-13 01:30N 34°58' E 136°39'0 0.1
2018-May-13 01:00N 34°58' E 136°39'0 0.1
2018-May-13 00:30N 34°58' E 136°39'0 0.0
2018-May-13 00:00N 34°58' E 136°39'0 0.0
2018-May-12 23:30N 34°58' E 136°39'3 5.8
2018-May-12 23:00N 34°58' E 136°42'2 3.9
2018-May-12 22:30N 34°56' E 136°43'4 8.7
2018-May-12 22:00N 34°52' E 136°44'5 9.4
2018-May-12 21:30N 34°47' E 136°47'510.4
2018-May-12 21:00N 34°43' E 136°50'2010.3
2018-May-12 19:06N 34°32' E 137°10'7211.5
2018-May-12 12:51N 34°35' E 138°38'910.6
2018-May-12 11:59N 34°35' E 138°49'5 9.5
2018-May-12 11:30N 34°36' E 138°54'5 9.2
2018-May-12 11:00N 34°38' E 138°59'610.6
2018-May-12 10:25N 34°43' E 139°04'510.8
2018-May-12 09:57N 34°46' E 139°08'5 9.8
2018-May-12 09:27N 34°50' E 139°12'15 9.1
2018-May-12 07:50N 34°57' E 139°28'3 9.5
2018-May-12 07:30N 34°59' E 139°30'5 9.5
2018-May-12 07:00N 35°02' E 139°35'5 9.9
2018-May-12 06:30N 35°06' E 139°39'510.0
2018-May-12 06:00N 35°09' E 139°44'510.0
2018-May-12 05:30N 35°14' E 139°46'510.3
2018-May-12 05:00N 35°18' E 139°44'510.6
2018-May-12 04:30N 35°24' E 139°43'510.6
2018-May-12 04:00N 35°28' E 139°47'3 6.4
2018-May-12 03:30N 35°31' E 139°46'0 0.0
2018-May-12 03:00N 35°31' E 139°46'0 0.0
2018-May-12 02:30N 35°31' E 139°46'0 0.0
2018-May-12 02:00N 35°31' E 139°46'0 0.0
2018-May-12 01:30N 35°31' E 139°46'0 0.0
2018-May-12 01:00N 35°31' E 139°46'0 0.0
2018-May-12 00:30N 35°31' E 139°46'0 0.0
2018-May-12 00:00N 35°31' E 139°46'0 0.0
2018-May-11 23:30N 35°31' E 139°46'0 0.0
2018-May-11 23:00N 35°31' E 139°46'3 6.2
2018-May-11 22:30N 35°30' E 139°50'0 0.5
2018-May-11 22:00N 35°30' E 139°50'0 0.0
2018-May-11 21:31N 35°30' E 139°50'0 0.0
2018-May-11 20:59N 35°30' E 139°50'0 0.1
2018-May-11 20:30N 35°30' E 139°50'0 0.0
2018-May-11 20:00N 35°30' E 139°50'0 0.0
2018-May-11 19:30N 35°30' E 139°50'0 0.0
2018-May-11 19:00N 35°30' E 139°50'0 0.0
2018-May-11 18:30N 35°30' E 139°50'0 0.0
2018-May-11 18:00N 35°30' E 139°50'0 0.0
2018-May-11 17:30N 35°30' E 139°50'0 0.0
2018-May-11 17:00N 35°30' E 139°50'0 0.0
2018-May-11 16:30N 35°30' E 139°50'0 0.0
2018-May-11 16:00N 35°30' E 139°50'0 0.0
2018-May-11 15:30N 35°30' E 139°50'0 0.0
2018-May-11 15:00N 35°30' E 139°50'0 0.0
2018-May-11 14:30N 35°30' E 139°50'0 0.0
2018-May-11 14:00N 35°30' E 139°50'0 0.0
2018-May-11 13:30N 35°30' E 139°50'0 0.0
2018-May-11 12:59N 35°30' E 139°50'0 0.0
2018-May-11 12:30N 35°30' E 139°50'0 0.0
2018-May-11 12:00N 35°30' E 139°50'0 0.0
2018-May-11 11:30N 35°30' E 139°50'0 0.0
2018-May-11 11:00N 35°30' E 139°50'0 0.0
2018-May-11 10:29N 35°30' E 139°50'0 0.0
2018-May-11 10:00N 35°30' E 139°50'0 0.0
2018-May-11 09:30N 35°30' E 139°50'0 0.0
2018-May-11 08:59N 35°30' E 139°50'0 0.0
2018-May-11 08:30N 35°30' E 139°50'0 0.0
2018-May-11 08:00N 35°30' E 139°50'0 0.0
2018-May-11 07:30N 35°30' E 139°50'0 0.0
2018-May-11 07:00N 35°30' E 139°50'0 0.0
2018-May-11 06:30N 35°30' E 139°50'0 0.0
2018-May-11 06:00N 35°30' E 139°50'0 0.0
2018-May-11 05:30N 35°30' E 139°50'0 0.0
2018-May-11 05:00N 35°30' E 139°50'0 0.0
2018-May-11 04:29N 35°30' E 139°50'0 0.0
2018-May-11 04:00N 35°30' E 139°50'0 0.0
2018-May-11 03:31N 35°30' E 139°50'0 0.0
2018-May-11 03:00N 35°30' E 139°50'0 0.0
2018-May-11 02:30N 35°30' E 139°50'1 1.2
2018-May-11 02:00N 35°30' E 139°51'6 9.0
2018-May-11 01:23N 35°32' E 139°57'4 8.9
2018-May-11 01:00N 35°33' E 140°01'0 0.3
2018-May-11 00:31N 35°33' E 140°01'0 0.0
2018-May-10 23:56N 35°33' E 140°01'0 0.0
2018-May-10 23:26N 35°33' E 140°01'0 0.0
2018-May-10 22:53N 35°33' E 140°01'0 0.0
2018-May-10 22:29N 35°33' E 140°01'0 0.0
2018-May-10 21:59N 35°33' E 140°01'0 0.0
2018-May-10 21:26N 35°33' E 140°01'0 0.0
2018-May-10 20:59N 35°33' E 140°01'0 0.0
2018-May-10 20:26N 35°33' E 140°01'0 0.0
2018-May-10 19:56N 35°33' E 140°01'0 0.0
2018-May-10 19:26N 35°33' E 140°01'0 0.0
2018-May-10 18:59N 35°33' E 140°01'0 0.0
2018-May-10 18:26N 35°33' E 140°01'0 0.0
2018-May-10 17:59N 35°33' E 140°01'0 0.0
2018-May-10 17:29N 35°33' E 140°01'0 0.0
2018-May-10 16:56N 35°33' E 140°01'0 0.0
2018-May-10 16:20N 35°33' E 140°01'0 0.0
2018-May-10 15:56N 35°33' E 140°01'0 0.0
2018-May-10 15:26N 35°33' E 140°01'0 0.0
2018-May-10 14:56N 35°33' E 140°01'0 0.0
2018-May-10 14:26N 35°33' E 140°01'0 0.0
2018-May-10 13:59N 35°33' E 140°01'0 0.0
2018-May-10 12:14N 35°33' E 140°01'0 0.0
2018-May-10 11:56N 35°33' E 140°01'0 0.0
2018-May-10 11:29N 35°33' E 140°01'0 0.0
2018-May-10 10:59N 35°33' E 140°01'0 0.1
2018-May-10 10:29N 35°33' E 140°01'0 0.1
2018-May-10 09:50N 35°33' E 140°01'0 0.0
2018-May-10 09:26N 35°33' E 140°01'0 0.0
2018-May-10 08:56N 35°33' E 140°01'0 0.0
2018-May-10 08:29N 35°33' E 140°01'0 0.0
2018-May-10 07:56N 35°33' E 140°01'0 0.0
2018-May-10 07:29N 35°33' E 140°01'0 0.0
2018-May-10 06:59N 35°33' E 140°01'0 0.2
2018-May-10 06:30N 35°33' E 140°01'4 7.4
2018-May-10 06:00N 35°36' E 140°05'1 2.1
2018-May-10 05:30N 35°36' E 140°06'0 0.0
2018-May-10 05:00N 35°36' E 140°06'0 0.0
2018-May-10 04:30N 35°36' E 140°06'0 0.0
2018-May-10 04:00N 35°36' E 140°06'0 0.0
2018-May-10 03:30N 35°36' E 140°06'0 0.0
2018-May-10 03:00N 35°36' E 140°06'0 0.0
2018-May-10 02:30N 35°36' E 140°06'0 0.0
2018-May-10 02:00N 35°36' E 140°06'0 0.0
2018-May-10 01:30N 35°36' E 140°06'0 0.0
2018-May-10 01:00N 35°36' E 140°06'0 0.0
2018-May-10 00:30N 35°36' E 140°06'0 0.0
2018-May-10 00:00N 35°36' E 140°06'0 0.0
2018-May-09 23:30N 35°36' E 140°06'0 0.0
2018-May-09 23:00N 35°36' E 140°06'0 0.0
2018-May-09 22:30N 35°36' E 140°06'0 0.0
2018-May-09 22:00N 35°36' E 140°06'0 0.0
2018-May-09 21:30N 35°36' E 140°06'0 0.0
2018-May-09 21:00N 35°36' E 140°06'0 0.0
2018-May-09 20:30N 35°36' E 140°06'0 0.0
2018-May-09 20:00N 35°36' E 140°06'0 0.0
2018-May-09 19:30N 35°36' E 140°06'0 0.0
2018-May-09 19:00N 35°36' E 140°06'0 0.0
2018-May-09 18:30N 35°36' E 140°06'0 0.0
2018-May-09 18:00N 35°36' E 140°06'0 0.0
2018-May-09 17:29N 35°36' E 140°06'0 0.0
2018-May-09 17:00N 35°36' E 140°06'0 0.0
2018-May-09 16:30N 35°36' E 140°06'0 0.0
2018-May-09 16:00N 35°36' E 140°06'0 0.0
2018-May-09 15:30N 35°36' E 140°06'0 0.0
2018-May-09 15:00N 35°36' E 140°06'0 0.0
2018-May-09 14:30N 35°36' E 140°06'0 0.0
2018-May-09 13:59N 35°36' E 140°06'0 0.0
2018-May-09 13:30N 35°36' E 140°06'0 0.0
2018-May-09 13:00N 35°36' E 140°06'0 0.0
2018-May-09 12:30N 35°36' E 140°06'0 0.0
2018-May-09 12:00N 35°36' E 140°06'0 0.0
2018-May-09 11:30N 35°36' E 140°06'0 0.0
2018-May-09 11:00N 35°36' E 140°06'0 0.0
2018-May-09 10:30N 35°36' E 140°06'0 0.0
2018-May-09 10:00N 35°36' E 140°06'0 0.0
2018-May-09 09:30N 35°36' E 140°06'0 0.0
2018-May-09 09:00N 35°36' E 140°06'0 0.0
2018-May-09 08:30N 35°36' E 140°06'0 0.0
2018-May-09 08:00N 35°36' E 140°06'0 0.0
2018-May-09 07:30N 35°36' E 140°06'0 0.0
2018-May-09 07:00N 35°36' E 140°06'0 0.0
2018-May-09 06:30N 35°36' E 140°06'0 0.0
2018-May-09 06:00N 35°36' E 140°06'0 0.0
2018-May-09 05:30N 35°36' E 140°06'0 0.0
2018-May-09 05:00N 35°36' E 140°06'0 0.0
2018-May-09 04:30N 35°36' E 140°06'0 0.0
2018-May-09 04:00N 35°36' E 140°06'0 0.0
2018-May-09 03:30N 35°36' E 140°06'0 0.0
2018-May-09 03:00N 35°36' E 140°06'0 0.0
2018-May-09 02:30N 35°36' E 140°06'0 0.0
2018-May-09 02:00N 35°36' E 140°06'0 0.0
2018-May-09 01:30N 35°36' E 140°06'0 0.0
2018-May-09 01:00N 35°36' E 140°06'0 0.0
2018-May-09 00:30N 35°36' E 140°06'0 0.0
2018-May-09 00:00N 35°36' E 140°06'0 0.0
2018-May-08 23:30N 35°36' E 140°06'0 0.0
2018-May-08 23:00N 35°36' E 140°06'0 0.0
2018-May-08 22:30N 35°36' E 140°06'0 0.0
2018-May-08 22:00N 35°36' E 140°06'0 0.0
2018-May-08 21:30N 35°36' E 140°06'0 0.0
2018-May-08 21:00N 35°36' E 140°06'0 0.0
2018-May-08 20:30N 35°36' E 140°06'0 0.0
2018-May-08 20:00N 35°36' E 140°06'0 0.0
2018-May-08 19:30N 35°36' E 140°06'0 0.0
2018-May-08 19:00N 35°36' E 140°06'0 0.0
2018-May-08 18:30N 35°36' E 140°06'0 0.0
2018-May-08 18:00N 35°36' E 140°06'0 0.0
2018-May-08 17:29N 35°36' E 140°06'0 0.0
2018-May-08 17:00N 35°36' E 140°06'0 0.0
2018-May-08 16:30N 35°36' E 140°06'0 0.0
2018-May-08 16:00N 35°36' E 140°06'0 0.0
2018-May-08 15:30N 35°36' E 140°06'0 0.0
2018-May-08 15:00N 35°36' E 140°06'0 0.0
2018-May-08 14:30N 35°36' E 140°06'0 0.0
2018-May-08 14:00N 35°36' E 140°06'0 0.0
2018-May-08 13:30N 35°36' E 140°06'0 0.0
2018-May-08 13:00N 35°36' E 140°06'0 0.0
2018-May-08 12:30N 35°36' E 140°06'0 0.0
2018-May-08 12:00N 35°36' E 140°06'0 0.0
2018-May-08 11:30N 35°36' E 140°06'0 0.0
2018-May-08 11:00N 35°36' E 140°06'0 0.0
2018-May-08 10:30N 35°36' E 140°06'0 0.0
2018-May-08 10:00N 35°36' E 140°06'0 0.0
2018-May-08 09:30N 35°36' E 140°06'0 0.0
2018-May-08 09:00N 35°36' E 140°06'0 0.0
2018-May-08 08:30N 35°36' E 140°06'0 0.0
2018-May-08 08:00N 35°36' E 140°06'0 0.0
2018-May-08 07:30N 35°36' E 140°06'0 0.0
2018-May-08 07:00N 35°36' E 140°06'0 0.0
2018-May-08 06:30N 35°36' E 140°06'  
Track history (hours):
 
Tides and Currents Weather Stations Pressure Air Temp Water Temp Dewpoint Dewpoint Depression Visibility Wind Speed Wind Dir Waves Ship Positions

Koyo Maru

Last reported at 2018-May-18 06:04 UTC. Time now 2018-May-22 21:19 UTC.
Position N 35°32' E 139°54'.

Length 61 m; draft 3.5 m.

Type: Tanker. MMSI: 431002923.

Date/timePositionNaut miles runAvg speedWind from/ knotsBaromVisibWave heightAir tempDewpointWater temp
2018-May-18 06:04N 35°32' E 139°54'112.3
2018-May-18 05:57N 35°31' E 139°52'510.8
2018-May-18 05:30N 35°30' E 139°46'1 0.2
2018-May-17 23:27N 35°32' E 139°45'2 4.4
2018-May-17 22:59N 35°30' E 139°47'2 4.0
2018-May-17 22:30N 35°30' E 139°49'0 0.0
2018-May-17 22:00N 35°30' E 139°49'0 0.0
2018-May-17 21:30N 35°30' E 139°49'0 0.0
2018-May-17 20:57N 35°30' E 139°49'0 0.0
2018-May-17 20:30N 35°30' E 139°49'0 0.0
2018-May-17 20:00N 35°30' E 139°49'0 0.0
2018-May-17 19:30N 35°30' E 139°49'0 0.0
2018-May-17 19:00N 35°30' E 139°49'0 0.0
2018-May-17 18:30N 35°30' E 139°49'0 0.0
2018-May-17 18:01N 35°30' E 139°49'0 0.0
2018-May-17 17:27N 35°30' E 139°49'0 0.0
2018-May-17 17:00N 35°30' E 139°49'0 0.0
2018-May-17 16:30N 35°30' E 139°49'0 0.0
2018-May-17 16:00N 35°30' E 139°49'0 0.0
2018-May-17 15:29N 35°30' E 139°49'0 0.0
2018-May-17 14:59N 35°30' E 139°49'0 0.0
2018-May-17 14:06N 35°30' E 139°49'0 0.0
2018-May-17 14:00N 35°30' E 139°49'0 0.0
2018-May-17 13:27N 35°30' E 139°49'2 5.0
2018-May-17 13:00N 35°28' E 139°48'510.7
2018-May-17 12:30N 35°23' E 139°46'5 9.8
2018-May-17 12:00N 35°18' E 139°45'510.4
2018-May-17 11:30N 35°13' E 139°47'611.3
2018-May-17 11:00N 35°08' E 139°45'611.2
2018-May-17 10:30N 35°03' E 139°42'612.3
2018-May-17 10:00N 34°59' E 139°36'232 9.6
2018-May-16 09:46N 34°04' E 135°03'310.0
2018-May-16 09:30N 34°07' E 135°03'510.1
2018-May-16 09:00N 34°12' E 135°03'5 9.7
2018-May-16 08:30N 34°17' E 135°03'5 9.5
2018-May-16 08:00N 34°21' E 135°05'510.8
2018-May-16 07:30N 34°25' E 135°09'611.4
2018-May-16 07:00N 34°29' E 135°15'510.7
2018-May-16 06:30N 34°32' E 135°20'4 9.0
2018-May-16 06:00N 34°33' E 135°25'1 0.9
2018-May-16 05:26N 34°33' E 135°26'0 0.0
2018-May-16 04:39N 34°33' E 135°26'0 0.0
2018-May-16 04:21N 34°33' E 135°26'0 0.1
2018-May-16 03:54N 34°33' E 135°26'0 0.0
2018-May-16 02:21N 34°33' E 135°26'0 0.0
2018-May-16 01:59N 34°33' E 135°26'0 0.0
2018-May-16 00:08N 34°33' E 135°26'0 0.5
2018-May-16 00:00N 34°33' E 135°26'5 9.6
2018-May-15 23:30N 34°33' E 135°20'611.3
2018-May-15 23:00N 34°35' E 135°13'5 9.2
2018-May-15 22:30N 34°39' E 135°11'2 4.1
2018-May-15 22:00N 34°41' E 135°12'0 0.0
2018-May-15 21:30N 34°41' E 135°12'0 0.0
2018-May-15 21:00N 34°41' E 135°12'0 0.0
2018-May-15 20:30N 34°41' E 135°12'0 0.0
2018-May-15 20:00N 34°41' E 135°12'0 0.0
2018-May-15 19:30N 34°41' E 135°12'0 0.0
2018-May-15 19:00N 34°41' E 135°12'0 0.0
2018-May-15 18:30N 34°41' E 135°12'0 0.0
2018-May-15 18:00N 34°41' E 135°12'0 0.0
2018-May-15 17:28N 34°41' E 135°12'0 0.0
2018-May-15 17:00N 34°41' E 135°12'0 0.0
2018-May-15 16:30N 34°41' E 135°12'0 0.0
2018-May-15 16:00N 34°41' E 135°12'0 0.0
2018-May-15 15:30N 34°41' E 135°12'0 0.0
2018-May-15 15:00N 34°41' E 135°12'0 0.0
2018-May-15 14:30N 34°41' E 135°12'0 0.0
2018-May-15 14:01N 34°41' E 135°12'0 0.0
2018-May-15 13:30N 34°41' E 135°12'0 0.0
2018-May-15 13:01N 34°41' E 135°12'0 0.0
2018-May-15 12:31N 34°41' E 135°12'0 0.0
2018-May-15 12:00N 34°41' E 135°12'0 0.0
2018-May-15 11:31N 34°41' E 135°12'0 0.0
2018-May-15 11:00N 34°41' E 135°12'0 0.0
2018-May-15 10:30N 34°41' E 135°12'0 0.0
2018-May-15 10:00N 34°41' E 135°12'0 0.0
2018-May-15 09:30N 34°41' E 135°12'0 0.0
2018-May-15 09:01N 34°41' E 135°12'0 0.0
2018-May-15 08:30N 34°41' E 135°12'0 0.0
2018-May-15 08:01N 34°41' E 135°12'0 0.0
2018-May-15 07:30N 34°41' E 135°12'0 0.0
2018-May-15 07:01N 34°41' E 135°12'0 0.0
2018-May-15 06:30N 34°41' E 135°12'0 0.0
2018-May-15 06:01N 34°41' E 135°12'0 0.0
2018-May-15 05:30N 34°41' E 135°12'0 0.0
2018-May-15 05:01N 34°41' E 135°12'0 0.0
2018-May-15 04:31N 34°41' E 135°12'0 0.0
2018-May-15 04:00N 34°41' E 135°12'0 0.0
2018-May-15 03:30N 34°41' E 135°12'0 0.0
2018-May-15 03:00N 34°41' E 135°12'0 0.0
2018-May-15 02:30N 34°41' E 135°12'0 0.0
2018-May-15 02:01N 34°41' E 135°12'0 0.0
2018-May-15 01:31N 34°41' E 135°12'0 0.0
2018-May-15 01:00N 34°41' E 135°12'0 0.0
2018-May-15 00:30N 34°41' E 135°12'0 0.2
2018-May-15 00:01N 34°41' E 135°12'4 7.1
2018-May-14 23:30N 34°38' E 135°10'1 1.9
2018-May-14 23:01N 34°37' E 135°10'0 0.0
2018-May-14 22:30N 34°37' E 135°10'0 0.0
2018-May-14 22:00N 34°37' E 135°10'0 0.0
2018-May-14 21:30N 34°37' E 135°10'0 0.1
2018-May-14 21:00N 34°37' E 135°10'0 0.0
2018-May-14 20:31N 34°37' E 135°10'0 0.0
2018-May-14 20:00N 34°37' E 135°10'0 0.0
2018-May-14 19:30N 34°37' E 135°10'0 0.0
2018-May-14 19:00N 34°37' E 135°10'0 0.0
2018-May-14 18:30N 34°37' E 135°10'0 0.0
2018-May-14 18:01N 34°37' E 135°10'0 0.0
2018-May-14 17:30N 34°37' E 135°10'0 0.0
2018-May-14 17:01N 34°37' E 135°10'0 0.0
2018-May-14 16:30N 34°37' E 135°10'0 0.0
2018-May-14 16:00N 34°37' E 135°10'0 0.0
2018-May-14 15:31N 34°37' E 135°10'0 0.0
2018-May-14 15:00N 34°37' E 135°10'1 1.6
2018-May-14 14:30N 34°36' E 135°11'5 9.2
2018-May-14 14:00N 34°38' E 135°17'2 3.1
2018-May-14 13:30N 34°39' E 135°18'0 0.0
2018-May-14 13:01N 34°39' E 135°18'0 0.0
2018-May-14 12:30N 34°39' E 135°18'0 0.1
2018-May-14 12:00N 34°39' E 135°18'1 2.7
2018-May-14 11:30N 34°38' E 135°18'0 0.9
2018-May-14 11:00N 34°37' E 135°18'0 0.0
2018-May-14 10:30N 34°37' E 135°18'0 0.0
2018-May-14 10:00N 34°37' E 135°18'0 0.1
2018-May-14 09:31N 34°37' E 135°18'0 0.1
2018-May-14 09:00N 34°37' E 135°18'2 4.0
2018-May-14 08:31N 34°39' E 135°18'0 0.9
2018-May-14 08:00N 34°40' E 135°18'0 0.0
2018-May-14 07:30N 34°40' E 135°18'0 0.0
2018-May-14 07:01N 34°40' E 135°18'0 0.0
2018-May-14 06:31N 34°40' E 135°18'0 0.5
2018-May-14 06:00N 34°40' E 135°18'2 4.5
2018-May-14 05:30N 34°38' E 135°18'1 1.6
2018-May-14 05:00N 34°37' E 135°18'0 0.0
2018-May-14 04:31N 34°37' E 135°18'0 0.0
2018-May-14 04:00N 34°37' E 135°18'0 0.0
2018-May-14 03:30N 34°37' E 135°18'0 0.0
2018-May-14 03:00N 34°37' E 135°18'0 0.0
2018-May-14 02:30N 34°37' E 135°18'0 0.0
2018-May-14 02:00N 34°37' E 135°18'0 0.0
2018-May-14 01:31N 34°37' E 135°18'0 0.0
2018-May-14 01:01N 34°37' E 135°18'2 4.6
2018-May-14 00:31N 34°35' E 135°16'611.3
2018-May-14 00:00N 34°31' E 135°12'611.0
2018-May-13 23:30N 34°26' E 135°08'611.4
2018-May-13 23:00N 34°22' E 135°04'611.8
2018-May-13 22:31N 34°17' E 134°59'612.1
2018-May-13 22:00N 34°11' E 135°00'611.8
2018-May-13 21:30N 34°05' E 135°01'611.8
2018-May-13 21:00N 33°59' E 135°01'611.5
2018-May-13 20:30N 33°54' E 135°02'102 6.5
2018-May-13 04:54N 34°39' E 136°52'4 9.9
2018-May-13 04:30N 34°42' E 136°49'510.4
2018-May-13 04:00N 34°47' E 136°46'510.3
2018-May-13 03:30N 34°52' E 136°45'510.7
2018-May-13 03:01N 34°57' E 136°44'1 1.1
2018-May-13 02:31N 34°57' E 136°44'2 4.4
2018-May-13 02:00N 34°58' E 136°41'2 3.9
2018-May-13 01:30N 34°58' E 136°39'0 0.1
2018-May-13 01:00N 34°58' E 136°39'0 0.1
2018-May-13 00:30N 34°58' E 136°39'0 0.0
2018-May-13 00:00N 34°58' E 136°39'0 0.0
2018-May-12 23:30N 34°58' E 136°39'3 5.8
2018-May-12 23:00N 34°58' E 136°42'2 3.9
2018-May-12 22:30N 34°56' E 136°43'4 8.7
2018-May-12 22:00N 34°52' E 136°44'5 9.4
2018-May-12 21:30N 34°47' E 136°47'510.4
2018-May-12 21:00N 34°43' E 136°50'2010.3
2018-May-12 19:06N 34°32' E 137°10'7211.5
2018-May-12 12:51N 34°35' E 138°38'910.6
2018-May-12 11:59N 34°35' E 138°49'5 9.5
2018-May-12 11:30N 34°36' E 138°54'5 9.2
2018-May-12 11:00N 34°38' E 138°59'610.6
2018-May-12 10:25N 34°43' E 139°04'510.8
2018-May-12 09:57N 34°46' E 139°08'5 9.8
2018-May-12 09:27N 34°50' E 139°12'15 9.1
2018-May-12 07:50N 34°57' E 139°28'3 9.5
2018-May-12 07:30N 34°59' E 139°30'5 9.5
2018-May-12 07:00N 35°02' E 139°35'5 9.9
2018-May-12 06:30N 35°06' E 139°39'510.0
2018-May-12 06:00N 35°09' E 139°44'510.0
2018-May-12 05:30N 35°14' E 139°46'510.3
2018-May-12 05:00N 35°18' E 139°44'510.6
2018-May-12 04:30N 35°24' E 139°43'510.6
2018-May-12 04:00N 35°28' E 139°47'3 6.4
2018-May-12 03:30N 35°31' E 139°46'0 0.0
2018-May-12 03:00N 35°31' E 139°46'0 0.0
2018-May-12 02:30N 35°31' E 139°46'0 0.0
2018-May-12 02:00N 35°31' E 139°46'0 0.0
2018-May-12 01:30N 35°31' E 139°46'0 0.0
2018-May-12 01:00N 35°31' E 139°46'0 0.0
2018-May-12 00:30N 35°31' E 139°46'0 0.0
2018-May-12 00:00N 35°31' E 139°46'0 0.0
2018-May-11 23:30N 35°31' E 139°46'0 0.0
2018-May-11 23:00N 35°31' E 139°46'3 6.2
2018-May-11 22:30N 35°30' E 139°50'0 0.5
2018-May-11 22:00N 35°30' E 139°50'0 0.0
2018-May-11 21:31N 35°30' E 139°50'0 0.0
2018-May-11 20:59N 35°30' E 139°50'0 0.1
2018-May-11 20:30N 35°30' E 139°50'0 0.0
2018-May-11 20:00N 35°30' E 139°50'0 0.0
2018-May-11 19:30N 35°30' E 139°50'0 0.0
2018-May-11 19:00N 35°30' E 139°50'0 0.0
2018-May-11 18:30N 35°30' E 139°50'0 0.0
2018-May-11 18:00N 35°30' E 139°50'0 0.0
2018-May-11 17:30N 35°30' E 139°50'0 0.0
2018-May-11 17:00N 35°30' E 139°50'0 0.0
2018-May-11 16:30N 35°30' E 139°50'0 0.0
2018-May-11 16:00N 35°30' E 139°50'0 0.0
2018-May-11 15:30N 35°30' E 139°50'0 0.0
2018-May-11 15:00N 35°30' E 139°50'0 0.0
2018-May-11 14:30N 35°30' E 139°50'0 0.0
2018-May-11 14:00N 35°30' E 139°50'0 0.0
2018-May-11 13:30N 35°30' E 139°50'0 0.0
2018-May-11 12:59N 35°30' E 139°50'0 0.0
2018-May-11 12:30N 35°30' E 139°50'0 0.0
2018-May-11 12:00N 35°30' E 139°50'0 0.0
2018-May-11 11:30N 35°30' E 139°50'0 0.0
2018-May-11 11:00N 35°30' E 139°50'0 0.0
2018-May-11 10:29N 35°30' E 139°50'0 0.0
2018-May-11 10:00N 35°30' E 139°50'0 0.0
2018-May-11 09:30N 35°30' E 139°50'0 0.0
2018-May-11 08:59N 35°30' E 139°50'0 0.0
2018-May-11 08:30N 35°30' E 139°50'0 0.0
2018-May-11 08:00N 35°30' E 139°50'0 0.0
2018-May-11 07:30N 35°30' E 139°50'0 0.0
2018-May-11 07:00N 35°30' E 139°50'0 0.0
2018-May-11 06:30N 35°30' E 139°50'0 0.0
2018-May-11 06:00N 35°30' E 139°50'0 0.0
2018-May-11 05:30N 35°30' E 139°50'0 0.0
2018-May-11 05:00N 35°30' E 139°50'0 0.0
2018-May-11 04:29N 35°30' E 139°50'0 0.0
2018-May-11 04:00N 35°30' E 139°50'0 0.0
2018-May-11 03:31N 35°30' E 139°50'0 0.0
2018-May-11 03:00N 35°30' E 139°50'0 0.0
2018-May-11 02:30N 35°30' E 139°50'1 1.2
2018-May-11 02:00N 35°30' E 139°51'6 9.0
2018-May-11 01:23N 35°32' E 139°57'4 8.9
2018-May-11 01:00N 35°33' E 140°01'0 0.3
2018-May-11 00:31N 35°33' E 140°01'0 0.0
2018-May-10 23:56N 35°33' E 140°01'0 0.0
2018-May-10 23:26N 35°33' E 140°01'0 0.0
2018-May-10 22:53N 35°33' E 140°01'0 0.0
2018-May-10 22:29N 35°33' E 140°01'0 0.0
2018-May-10 21:59N 35°33' E 140°01'0 0.0
2018-May-10 21:26N 35°33' E 140°01'0 0.0
2018-May-10 20:59N 35°33' E 140°01'0 0.0
2018-May-10 20:26N 35°33' E 140°01'0 0.0
2018-May-10 19:56N 35°33' E 140°01'0 0.0
2018-May-10 19:26N 35°33' E 140°01'0 0.0
2018-May-10 18:59N 35°33' E 140°01'0 0.0
2018-May-10 18:26N 35°33' E 140°01'0 0.0
2018-May-10 17:59N 35°33' E 140°01'0 0.0
2018-May-10 17:29N 35°33' E 140°01'0 0.0
2018-May-10 16:56N 35°33' E 140°01'0 0.0
2018-May-10 16:20N 35°33' E 140°01'0 0.0
2018-May-10 15:56N 35°33' E 140°01'0 0.0
2018-May-10 15:26N 35°33' E 140°01'0 0.0
2018-May-10 14:56N 35°33' E 140°01'0 0.0
2018-May-10 14:26N 35°33' E 140°01'0 0.0
2018-May-10 13:59N 35°33' E 140°01'0 0.0
2018-May-10 12:14N 35°33' E 140°01'0 0.0
2018-May-10 11:56N 35°33' E 140°01'0 0.0
2018-May-10 11:29N 35°33' E 140°01'0 0.0
2018-May-10 10:59N 35°33' E 140°01'0 0.1
2018-May-10 10:29N 35°33' E 140°01'0 0.1
2018-May-10 09:50N 35°33' E 140°01'0 0.0
2018-May-10 09:26N 35°33' E 140°01'0 0.0
2018-May-10 08:56N 35°33' E 140°01'0 0.0
2018-May-10 08:29N 35°33' E 140°01'0 0.0
2018-May-10 07:56N 35°33' E 140°01'0 0.0
2018-May-10 07:29N 35°33' E 140°01'0 0.0
2018-May-10 06:59N 35°33' E 140°01'0 0.2
2018-May-10 06:30N 35°33' E 140°01'4 7.4
2018-May-10 06:00N 35°36' E 140°05'1 2.1
2018-May-10 05:30N 35°36' E 140°06'0 0.0
2018-May-10 05:00N 35°36' E 140°06'0 0.0
2018-May-10 04:30N 35°36' E 140°06'0 0.0
2018-May-10 04:00N 35°36' E 140°06'0 0.0
2018-May-10 03:30N 35°36' E 140°06'0 0.0
2018-May-10 03:00N 35°36' E 140°06'0 0.0
2018-May-10 02:30N 35°36' E 140°06'0 0.0
2018-May-10 02:00N 35°36' E 140°06'0 0.0
2018-May-10 01:30N 35°36' E 140°06'0 0.0
2018-May-10 01:00N 35°36' E 140°06'0 0.0
2018-May-10 00:30N 35°36' E 140°06'0 0.0
2018-May-10 00:00N 35°36' E 140°06'0 0.0
2018-May-09 23:30N 35°36' E 140°06'0 0.0
2018-May-09 23:00N 35°36' E 140°06'0 0.0
2018-May-09 22:30N 35°36' E 140°06'0 0.0
2018-May-09 22:00N 35°36' E 140°06'0 0.0
2018-May-09 21:30N 35°36' E 140°06'0 0.0
2018-May-09 21:00N 35°36' E 140°06'0 0.0
2018-May-09 20:30N 35°36' E 140°06'0 0.0
2018-May-09 20:00N 35°36' E 140°06'0 0.0
2018-May-09 19:30N 35°36' E 140°06'0 0.0
2018-May-09 19:00N 35°36' E 140°06'0 0.0
2018-May-09 18:30N 35°36' E 140°06'0 0.0
2018-May-09 18:00N 35°36' E 140°06'0 0.0
2018-May-09 17:29N 35°36' E 140°06'0 0.0
2018-May-09 17:00N 35°36' E 140°06'0 0.0
2018-May-09 16:30N 35°36' E 140°06'0 0.0
2018-May-09 16:00N 35°36' E 140°06'0 0.0
2018-May-09 15:30N 35°36' E 140°06'0 0.0
2018-May-09 15:00N 35°36' E 140°06'0 0.0
2018-May-09 14:30N 35°36' E 140°06'0 0.0
2018-May-09 13:59N 35°36' E 140°06'0 0.0
2018-May-09 13:30N 35°36' E 140°06'0 0.0
2018-May-09 13:00N 35°36' E 140°06'0 0.0
2018-May-09 12:30N 35°36' E 140°06'0 0.0
2018-May-09 12:00N 35°36' E 140°06'0 0.0
2018-May-09 11:30N 35°36' E 140°06'0 0.0
2018-May-09 11:00N 35°36' E 140°06'0 0.0
2018-May-09 10:30N 35°36' E 140°06'0 0.0
2018-May-09 10:00N 35°36' E 140°06'0 0.0
2018-May-09 09:30N 35°36' E 140°06'0 0.0
2018-May-09 09:00N 35°36' E 140°06'0 0.0
2018-May-09 08:30N 35°36' E 140°06'0 0.0
2018-May-09 08:00N 35°36' E 140°06'0 0.0
2018-May-09 07:30N 35°36' E 140°06'0 0.0
2018-May-09 07:00N 35°36' E 140°06'0 0.0
2018-May-09 06:30N 35°36' E 140°06'0 0.0
2018-May-09 06:00N 35°36' E 140°06'0 0.0
2018-May-09 05:30N 35°36' E 140°06'0 0.0
2018-May-09 05:00N 35°36' E 140°06'0 0.0
2018-May-09 04:30N 35°36' E 140°06'0 0.0
2018-May-09 04:00N 35°36' E 140°06'0 0.0
2018-May-09 03:30N 35°36' E 140°06'0 0.0
2018-May-09 03:00N 35°36' E 140°06'0 0.0
2018-May-09 02:30N 35°36' E 140°06'0 0.0
2018-May-09 02:00N 35°36' E 140°06'0 0.0
2018-May-09 01:30N 35°36' E 140°06'0 0.0
2018-May-09 01:00N 35°36' E 140°06'0 0.0
2018-May-09 00:30N 35°36' E 140°06'0 0.0
2018-May-09 00:00N 35°36' E 140°06'0 0.0
2018-May-08 23:30N 35°36' E 140°06'0 0.0
2018-May-08 23:00N 35°36' E 140°06'0 0.0
2018-May-08 22:30N 35°36' E 140°06'0 0.0
2018-May-08 22:00N 35°36' E 140°06'0 0.0
2018-May-08 21:30N 35°36' E 140°06'0 0.0
2018-May-08 21:00N 35°36' E 140°06'0 0.0
2018-May-08 20:30N 35°36' E 140°06'0 0.0
2018-May-08 20:00N 35°36' E 140°06'0 0.0
2018-May-08 19:30N 35°36' E 140°06'0 0.0
2018-May-08 19:00N 35°36' E 140°06'0 0.0
2018-May-08 18:30N 35°36' E 140°06'0 0.0
2018-May-08 18:00N 35°36' E 140°06'0 0.0
2018-May-08 17:29N 35°36' E 140°06'0 0.0
2018-May-08 17:00N 35°36' E 140°06'0 0.0
2018-May-08 16:30N 35°36' E 140°06'0 0.0
2018-May-08 16:00N 35°36' E 140°06'0 0.0
2018-May-08 15:30N 35°36' E 140°06'0 0.0
2018-May-08 15:00N 35°36' E 140°06'0 0.0
2018-May-08 14:30N 35°36' E 140°06'0 0.0
2018-May-08 14:00N 35°36' E 140°06'0 0.0
2018-May-08 13:30N 35°36' E 140°06'0 0.0
2018-May-08 13:00N 35°36' E 140°06'0 0.0
2018-May-08 12:30N 35°36' E 140°06'0 0.0
2018-May-08 12:00N 35°36' E 140°06'0 0.0
2018-May-08 11:30N 35°36' E 140°06'0 0.0
2018-May-08 11:00N 35°36' E 140°06'0 0.0
2018-May-08 10:30N 35°36' E 140°06'0 0.0
2018-May-08 10:00N 35°36' E 140°06'0 0.0
2018-May-08 09:30N 35°36' E 140°06'0 0.0
2018-May-08 09:00N 35°36' E 140°06'0 0.0
2018-May-08 08:30N 35°36' E 140°06'0 0.0
2018-May-08 08:00N 35°36' E 140°06'0 0.0
2018-May-08 07:30N 35°36' E 140°06'0 0.0
2018-May-08 07:00N 35°36' E 140°06'0 0.0
2018-May-08 06:30N 35°36' E 140°06'  

Dump ship's entire track history